createdAt,value
2022-11-28T00:01:51.741Z,86026.97
2022-11-28T00:04:18.873Z,86014.03
2022-11-28T00:06:49.522Z,86036.94
2022-11-28T00:09:18.861Z,86035.44
2022-11-28T00:11:48.628Z,86017.47
2022-11-28T00:14:17.350Z,86035.50
2022-11-28T00:16:44.375Z,86016.34
2022-11-28T00:19:13.076Z,86028.75
2022-11-28T00:21:41.806Z,86026.66
2022-11-28T00:24:09.915Z,86028.63
2022-11-28T00:26:42.130Z,86028.66
2022-11-28T00:29:10.773Z,86005.28
2022-11-28T00:31:43.207Z,86026.53
2022-11-28T00:34:12.477Z,86027.97
2022-11-28T00:36:39.531Z,86030.69
2022-11-28T00:39:07.302Z,86026.63
2022-11-28T00:41:35.545Z,86019.03
2022-11-28T00:44:02.720Z,86012.16
2022-11-28T00:46:30.121Z,86010.94
2022-11-28T00:48:58.931Z,86007.41
2022-11-28T00:51:28.587Z,86016.34
2022-11-28T00:53:58.134Z,85999.88
2022-11-28T00:56:28.213Z,86016.34
2022-11-28T00:58:56.227Z,86006.69
2022-11-28T01:01:27.549Z,86012.31
2022-11-28T01:03:56.347Z,85992.16
2022-11-28T01:06:26.648Z,86000.41
2022-11-28T01:08:54.542Z,85998.34
2022-11-28T01:11:22.218Z,86006.69
2022-11-28T01:13:49.645Z,85994.22
2022-11-28T01:16:16.852Z,86016.28
2022-11-28T01:18:43.923Z,85982.47
2022-11-28T01:21:11.462Z,85990.13
2022-11-28T01:23:38.454Z,85991.50
2022-11-28T01:26:07.808Z,86002.69
2022-11-28T01:28:35.682Z,85969.59
2022-11-28T01:31:07.744Z,85995.94
2022-11-28T01:33:35.016Z,85995.31
2022-11-28T01:36:02.197Z,85988.44
2022-11-28T01:38:29.982Z,85981.50
2022-11-28T01:40:57.383Z,85969.88
2022-11-28T01:43:25.112Z,85956.88
2022-11-28T01:45:52.773Z,85970.72
2022-11-28T01:48:29.444Z,85970.06
2022-11-28T01:51:00.914Z,85961.75
2022-11-28T01:53:30.830Z,85941.09
2022-11-28T01:56:09.171Z,85968.00
2022-11-28T01:58:41.606Z,85960.47
2022-11-28T02:01:09.546Z,85928.69
2022-11-28T02:03:48.717Z,85933.50
2022-11-28T02:06:20.405Z,85933.56
2022-11-28T02:08:53.281Z,85899.78
2022-11-28T02:11:40.303Z,85956.34
2022-11-28T02:14:31.466Z,85936.38
2022-11-28T02:17:22.100Z,85927.28
2022-11-28T02:19:54.677Z,85953.81
2022-11-28T02:22:30.506Z,85955.06
2022-11-28T02:25:16.683Z,85959.88
2022-11-28T02:28:01.557Z,85949.50
2022-11-28T02:30:59.887Z,85942.63
2022-11-28T02:33:26.749Z,85941.28
2022-11-28T02:36:04.038Z,85945.13
2022-11-28T02:38:45.963Z,85938.28
2022-11-28T02:41:35.127Z,85945.06
2022-11-28T02:44:16.615Z,85919.59
2022-11-28T02:47:09.974Z,85936.88
2022-11-28T02:50:04.976Z,85910.53
2022-11-28T02:52:38.793Z,85912.34
2022-11-28T02:55:07.027Z,85904.75
2022-11-28T02:57:42.217Z,85935.09
2022-11-28T03:00:32.623Z,85932.28
2022-11-28T03:03:09.891Z,85939.22
2022-11-28T03:05:48.056Z,85921.25
2022-11-28T03:08:25.212Z,85932.41
2022-11-28T03:11:18.248Z,85927.97
2022-11-28T03:13:57.716Z,85915.22
2022-11-28T03:16:41.302Z,85917.38
2022-11-28T03:19:33.532Z,85936.66
2022-11-28T03:22:30.903Z,85922.47
2022-11-28T03:25:10.615Z,85918.78
2022-11-28T03:28:03.723Z,85921.66
2022-11-28T03:30:44.767Z,85907.78
2022-11-28T03:33:14.422Z,85915.94
2022-11-28T03:35:49.275Z,85883.50
2022-11-28T03:38:31.999Z,85911.25
2022-11-28T03:41:03.260Z,85915.31
2022-11-28T03:43:36.621Z,85889.19
2022-11-28T03:46:09.273Z,85898.94
2022-11-28T03:48:42.255Z,85909.84
2022-11-28T03:51:29.013Z,85925.13
2022-11-28T03:54:04.889Z,85914.13
2022-11-28T03:56:51.991Z,85923.13
2022-11-28T03:59:31.419Z,85922.16
2022-11-28T04:02:08.137Z,85855.22
2022-11-28T04:05:00.081Z,85927.16
2022-11-28T04:07:47.925Z,85923.72
2022-11-28T04:10:26.778Z,85924.50
2022-11-28T04:13:06.247Z,85911.38
2022-11-28T04:15:54.836Z,85931.34
2022-11-28T04:18:30.804Z,85936.81
2022-11-28T04:21:35.322Z,85934.72
2022-11-28T04:24:06.116Z,85929.97
2022-11-28T04:26:36.195Z,85933.34
2022-11-28T04:29:10.622Z,85916.84
2022-11-28T04:31:40.642Z,85926.56
2022-11-28T04:34:11.595Z,85926.72
2022-11-28T04:36:41.276Z,85922.41
2022-11-28T04:39:14.793Z,85936.06
2022-11-28T04:41:57.247Z,85930.66
2022-11-28T04:44:45.886Z,85931.38
2022-11-28T04:47:13.040Z,85908.56
2022-11-28T04:49:40.627Z,85921.16
2022-11-28T04:52:30.653Z,85930.78
2022-11-28T04:55:14.325Z,85914.31
2022-11-28T04:57:45.690Z,85928.78
2022-11-28T05:00:18.147Z,85911.75
2022-11-28T05:02:50.203Z,85914.63
2022-11-28T05:05:20.735Z,85920.06
2022-11-28T05:07:47.801Z,85897.88
2022-11-28T05:10:16.634Z,85925.53
2022-11-28T05:12:43.595Z,85898.56
2022-11-28T05:15:10.991Z,85930.34
2022-11-28T05:17:42.179Z,85896.41
2022-11-28T05:20:10.262Z,85812.25
2022-11-28T05:22:37.327Z,85921.44
2022-11-28T05:25:04.619Z,85904.72
2022-11-28T05:27:31.566Z,85934.44
2022-11-28T05:29:58.680Z,85931.03
2022-11-28T05:32:25.734Z,85937.84
2022-11-28T05:34:52.774Z,85928.31
2022-11-28T05:37:19.910Z,85916.53
2022-11-28T05:39:46.817Z,85950.31
2022-11-28T05:42:13.796Z,85955.19
2022-11-28T05:44:41.010Z,85946.31
2022-11-28T05:47:08.003Z,85873.75
2022-11-28T05:49:35.195Z,85946.34
2022-11-28T05:52:02.055Z,85893.16
2022-11-28T05:54:30.731Z,85920.78
2022-11-28T05:56:57.791Z,85943.72
2022-11-28T05:59:24.888Z,85949.28
2022-11-28T06:01:52.095Z,85947.13
2022-11-28T06:04:19.335Z,85929.16
2022-11-28T06:06:46.406Z,85943.66
2022-11-28T06:09:14.234Z,85920.06
2022-11-28T06:11:41.232Z,85952.56
2022-11-28T06:14:08.371Z,85907.59
2022-11-28T06:16:35.670Z,85948.97
2022-11-28T06:19:05.372Z,85951.84
2022-11-28T06:21:33.250Z,85946.13
2022-11-28T06:24:00.688Z,85933.75
2022-11-28T06:26:29.443Z,85917.28
2022-11-28T06:28:57.140Z,85952.47
2022-11-28T06:31:28.465Z,85875.75
2022-11-28T06:33:56.371Z,85929.66
2022-11-28T06:36:24.057Z,85950.53
2022-11-28T06:38:51.023Z,85947.09
2022-11-28T06:41:20.753Z,85957.19
2022-11-28T06:43:47.782Z,85873.53
2022-11-28T06:46:19.023Z,85948.81
2022-11-28T06:48:47.801Z,85938.53
2022-11-28T06:51:15.801Z,85922.63
2022-11-28T06:53:43.389Z,85952.13
2022-11-28T06:56:16.795Z,85912.72
2022-11-28T06:58:44.832Z,85933.41
2022-11-28T07:01:14.748Z,85944.53
2022-11-28T07:03:42.551Z,85948.72
2022-11-28T07:06:10.002Z,85943.22
2022-11-28T07:08:38.199Z,85946.00
2022-11-28T07:11:11.648Z,85916.34
2022-11-28T07:13:40.326Z,85945.38
2022-11-28T07:16:08.687Z,85939.22
2022-11-28T07:18:35.802Z,85909.59
2022-11-28T07:21:02.942Z,85896.41
2022-11-28T07:23:30.028Z,85924.13
2022-11-28T07:26:01.789Z,85932.41
2022-11-28T07:28:30.578Z,85939.22
2022-11-28T07:31:18.959Z,85939.31
2022-11-28T07:33:48.749Z,85940.03
2022-11-28T07:36:21.901Z,85938.03
2022-11-28T07:38:56.963Z,85888.34
2022-11-28T07:41:26.765Z,85932.50
2022-11-28T07:43:59.903Z,85947.63
2022-11-28T07:46:28.481Z,85907.66
2022-11-28T07:48:56.737Z,85928.53
2022-11-28T07:51:30.409Z,85934.00
2022-11-28T07:53:57.634Z,85927.91
2022-11-28T07:56:39.493Z,85936.81
2022-11-28T07:59:12.274Z,85912.75
2022-11-28T08:01:39.604Z,85911.47
2022-11-28T08:04:08.918Z,85896.25
2022-11-28T08:06:39.444Z,85930.22
2022-11-28T08:09:09.782Z,85922.69
2022-11-28T08:11:36.791Z,85907.38
2022-11-28T08:14:04.610Z,85933.00
2022-11-28T08:16:32.496Z,85929.00
2022-11-28T08:19:02.677Z,85929.03
2022-11-28T08:21:35.601Z,85931.78
2022-11-28T08:24:04.016Z,85931.13
2022-11-28T08:26:33.139Z,85934.56
2022-11-28T08:29:01.387Z,85897.22
2022-11-28T08:31:33.758Z,85924.97
2022-11-28T08:34:03.032Z,85905.81
2022-11-28T08:36:30.234Z,85886.47
2022-11-28T08:41:46.669Z,85922.34
2022-11-28T08:44:13.858Z,85919.69
2022-11-28T08:46:40.960Z,85898.88
2022-11-28T08:49:08.023Z,85918.91
2022-11-28T08:51:35.006Z,85894.84
2022-11-28T08:54:01.968Z,85914.22
2022-11-28T08:56:29.254Z,85919.78
2022-11-28T08:58:56.319Z,85923.91
2022-11-28T09:01:26.159Z,85922.63
2022-11-28T09:03:54.691Z,85910.31
2022-11-28T09:06:22.955Z,85915.84
2022-11-28T09:08:51.204Z,85878.69
2022-11-28T09:11:20.917Z,85877.97
2022-11-28T09:13:48.218Z,85891.09
2022-11-28T09:16:15.790Z,85883.00
2022-11-28T09:18:43.090Z,85898.91
2022-11-28T09:21:12.594Z,85852.00
2022-11-28T09:23:41.405Z,85894.22
2022-11-28T09:26:19.783Z,85895.59
2022-11-28T09:28:46.990Z,85862.44
2022-11-28T09:31:15.822Z,85897.00
2022-11-28T09:33:43.804Z,85887.41
2022-11-28T09:36:13.114Z,85875.06
2022-11-28T09:38:40.294Z,85865.47
2022-11-28T09:41:38.979Z,85882.13
2022-11-28T09:44:14.743Z,85875.28
2022-11-28T09:46:42.911Z,85872.59
2022-11-28T09:49:22.651Z,85847.69
2022-11-28T09:52:14.004Z,85862.97
2022-11-28T09:54:49.103Z,85868.56
2022-11-28T09:57:23.990Z,85860.25
2022-11-28T09:59:50.946Z,85869.16
2022-11-28T10:02:36.426Z,85857.53
2022-11-28T10:05:19.338Z,85853.44
2022-11-28T10:07:58.741Z,85850.75
2022-11-28T10:10:31.341Z,85847.97
2022-11-28T10:13:16.934Z,85843.91
2022-11-28T10:16:10.319Z,85848.63
2022-11-28T10:18:47.969Z,85813.47
2022-11-28T10:21:42.293Z,85849.38
2022-11-28T10:24:17.050Z,85845.28
2022-11-28T10:26:47.254Z,85846.06
2022-11-28T10:29:47.007Z,85845.38
2022-11-28T10:32:21.121Z,85819.16
2022-11-28T10:35:02.949Z,85833.06
2022-11-28T10:37:32.081Z,85816.41
2022-11-28T10:40:15.305Z,85832.38
2022-11-28T10:42:46.073Z,85802.03
2022-11-28T10:45:46.435Z,85833.13
2022-11-28T10:48:39.688Z,85805.56
2022-11-28T10:51:32.556Z,85837.22
2022-11-28T10:54:14.739Z,85840.66
2022-11-28T10:56:56.537Z,85834.53
2022-11-28T10:59:31.955Z,85825.00
2022-11-28T11:02:00.843Z,85763.69
2022-11-28T11:04:28.522Z,85813.38
2022-11-28T11:07:20.965Z,85811.31
2022-11-28T11:09:51.623Z,85830.53
2022-11-28T11:12:30.823Z,85795.41
2022-11-28T11:14:58.067Z,85765.78
2022-11-28T11:17:31.374Z,85809.28
2022-11-28T11:20:02.494Z,85816.22
2022-11-28T11:22:32.086Z,85805.84
2022-11-28T11:25:20.169Z,85777.66
2022-11-28T11:28:01.930Z,85805.94
2022-11-28T11:30:35.663Z,85802.53
2022-11-28T11:33:05.932Z,85778.47
2022-11-28T11:35:48.509Z,85794.34
2022-11-28T11:38:21.256Z,85796.41
2022-11-28T11:40:49.774Z,85782.56
2022-11-28T11:43:37.028Z,85803.97
2022-11-28T11:46:08.408Z,85788.00
2022-11-28T11:48:39.183Z,85807.34
2022-11-28T11:51:08.602Z,85808.69
2022-11-28T11:53:35.600Z,85759.13
2022-11-28T11:56:03.885Z,85804.63
2022-11-28T11:58:39.528Z,85794.25
2022-11-28T12:01:08.143Z,85786.06
2022-11-28T12:03:55.358Z,85804.59
2022-11-28T12:06:28.544Z,85802.53
2022-11-28T12:09:23.093Z,85773.53
2022-11-28T12:11:56.704Z,85796.34
2022-11-28T12:14:36.759Z,85792.22
2022-11-28T12:17:47.377Z,85794.97
2022-11-28T12:20:11.550Z,85805.94
2022-11-28T12:23:14.340Z,85807.97
2022-11-28T12:25:50.997Z,85793.50
2022-11-28T12:28:29.975Z,85806.63
2022-11-28T12:31:17.443Z,85812.13
2022-11-28T12:34:16.849Z,85781.81
2022-11-28T12:37:19.017Z,85811.41
2022-11-28T12:39:46.365Z,85801.75
2022-11-28T12:42:27.027Z,85803.75
2022-11-28T12:45:08.986Z,85823.69
2022-11-28T12:47:54.062Z,85812.75
2022-11-28T12:50:30.294Z,85814.09
2022-11-28T12:53:28.559Z,85772.78
2022-11-28T12:56:13.976Z,85813.38
2022-11-28T12:58:57.417Z,85779.00
2022-11-28T13:01:43.221Z,85811.38
2022-11-28T13:04:31.727Z,85806.53
2022-11-28T13:07:16.789Z,85801.66
2022-11-28T13:09:55.374Z,85791.31
2022-11-28T13:12:41.194Z,85825.03
2022-11-28T13:15:47.302Z,85786.47
2022-11-28T13:18:20.345Z,85825.03
2022-11-28T13:21:14.622Z,85838.03
2022-11-28T13:23:56.379Z,85836.63
2022-11-28T13:26:35.393Z,85832.56
2022-11-28T13:29:13.974Z,85833.22
2022-11-28T13:32:24.305Z,85819.47
2022-11-28T13:34:52.032Z,85829.09
2022-11-28T13:40:31.759Z,85814.72
2022-11-28T13:43:14.007Z,85814.75
2022-11-28T13:45:43.540Z,85780.97
2022-11-28T13:51:31.577Z,85815.41
2022-11-28T13:54:17.736Z,85816.78
2022-11-28T13:57:21.463Z,85816.09
2022-11-28T13:59:54.503Z,85801.66
2022-11-28T14:02:42.193Z,85814.78
2022-11-28T14:05:30.794Z,85811.28
2022-11-28T14:07:58.507Z,85776.81
2022-11-28T14:10:28.616Z,85816.72
2022-11-28T14:13:07.806Z,85813.28
2022-11-28T14:16:05.595Z,85811.25
2022-11-28T14:19:00.339Z,85790.63
2022-11-28T14:21:30.610Z,85811.25
2022-11-28T14:24:19.427Z,85806.47
2022-11-28T14:26:47.465Z,85809.13
2022-11-28T14:29:23.562Z,85796.72
2022-11-28T14:32:21.707Z,85813.22
2022-11-28T14:34:48.883Z,85807.03
2022-11-28T14:37:21.961Z,85810.38
2022-11-28T14:39:50.388Z,85793.91
2022-11-28T14:42:43.916Z,85814.56
2022-11-28T14:45:41.622Z,85812.41
2022-11-28T14:48:17.030Z,85812.41
2022-11-28T14:50:59.307Z,85799.28
2022-11-28T14:53:34.521Z,85815.19
2022-11-28T14:56:13.622Z,85817.88
2022-11-28T14:58:47.413Z,85802.03
2022-11-28T15:01:20.981Z,85823.38
2022-11-28T15:04:05.144Z,85822.66
2022-11-28T15:06:40.110Z,85805.28
2022-11-28T15:09:38.449Z,85809.50
2022-11-28T15:12:17.669Z,85794.19
2022-11-28T15:14:50.986Z,85810.09
2022-11-28T15:17:21.656Z,85800.44
2022-11-28T15:19:50.074Z,85806.56
2022-11-28T15:22:46.897Z,85817.63
2022-11-28T15:25:23.449Z,85812.09
2022-11-28T15:27:51.443Z,85812.09
2022-11-28T15:30:26.826Z,85805.22
2022-11-28T15:33:00.035Z,85798.31
2022-11-28T15:35:28.299Z,85805.28
2022-11-28T15:37:58.169Z,85791.50
2022-11-28T15:40:32.818Z,85794.91
2022-11-28T15:43:06.637Z,85788.72
2022-11-28T15:45:37.058Z,85802.50
2022-11-28T15:48:06.296Z,85803.19
2022-11-28T15:50:34.425Z,85785.94
2022-11-28T15:53:03.010Z,85801.16
2022-11-28T15:55:33.181Z,85799.09
2022-11-28T15:58:15.248Z,85801.16
2022-11-28T16:00:44.897Z,85810.06
2022-11-28T16:03:22.773Z,85814.16
2022-11-28T16:05:52.033Z,85808.00
2022-11-28T16:08:29.048Z,85810.75
2022-11-28T16:10:56.989Z,85801.13
2022-11-28T16:13:25.048Z,85785.22
2022-11-28T16:15:56.229Z,85799.06
2022-11-28T16:18:25.506Z,85791.50
2022-11-28T16:20:52.982Z,85769.38
2022-11-28T16:23:30.404Z,85801.13
2022-11-28T16:26:01.512Z,85810.75
2022-11-28T16:28:37.076Z,85792.81
2022-11-28T16:31:19.263Z,85777.63
2022-11-28T16:33:47.923Z,85790.13
2022-11-28T16:36:34.020Z,85798.41
2022-11-28T16:39:15.498Z,85803.88
2022-11-28T16:42:08.001Z,85765.94
2022-11-28T16:44:35.015Z,85788.06
2022-11-28T16:47:02.504Z,85803.88
2022-11-28T16:49:33.313Z,85798.38
2022-11-28T16:52:26.373Z,85807.28
2022-11-28T16:54:57.605Z,85807.94
2022-11-28T16:57:28.826Z,85767.31
2022-11-28T16:59:59.842Z,85812.03
2022-11-28T17:02:27.116Z,85792.13
2022-11-28T17:04:54.611Z,85808.66
2022-11-28T17:07:23.706Z,85799.66
2022-11-28T17:09:51.506Z,85817.56
2022-11-28T17:12:34.333Z,85807.28
2022-11-28T17:15:01.379Z,85794.09
2022-11-28T17:17:30.740Z,85790.72
2022-11-28T17:19:57.849Z,85812.06
2022-11-28T17:22:38.920Z,85792.72
2022-11-28T17:25:16.624Z,85772.81
2022-11-28T17:27:44.459Z,85803.75
2022-11-28T17:30:16.132Z,85785.81
2022-11-28T17:32:43.879Z,85820.19
2022-11-28T17:35:14.305Z,85802.41
2022-11-28T17:37:41.306Z,85780.34
2022-11-28T17:40:27.850Z,85776.09
2022-11-28T17:42:54.752Z,85810.59
2022-11-28T17:45:22.414Z,85811.91
2022-11-28T17:47:49.718Z,85769.25
2022-11-28T17:50:17.860Z,85806.47
2022-11-28T17:52:44.953Z,85782.41
2022-11-28T17:55:12.374Z,85796.91
2022-11-28T17:57:39.490Z,85799.66
2022-11-28T18:00:09.510Z,85785.75
2022-11-28T18:02:43.892Z,85785.84
2022-11-28T18:05:11.381Z,85736.28
2022-11-28T18:07:40.047Z,85745.34
2022-11-28T18:10:11.312Z,85788.72
2022-11-28T18:12:39.652Z,85761.03
2022-11-28T18:15:08.287Z,85756.88
2022-11-28T18:17:35.673Z,85771.34
2022-11-28T18:20:03.841Z,85765.91
2022-11-28T18:22:30.979Z,85754.25
2022-11-28T18:24:58.124Z,85758.38
2022-11-28T18:27:25.217Z,85777.59
2022-11-28T18:29:52.691Z,85783.88
2022-11-28T18:32:19.912Z,85771.50
2022-11-28T18:34:47.566Z,85732.28
2022-11-28T18:37:14.731Z,85779.16
2022-11-28T18:39:42.477Z,85781.19
2022-11-28T18:42:10.600Z,85762.63
2022-11-28T18:44:37.789Z,85735.13
2022-11-28T18:47:04.881Z,85759.19
2022-11-28T18:49:32.347Z,85783.22
2022-11-28T18:51:59.379Z,85784.53
2022-11-28T18:54:31.205Z,85762.56
2022-11-28T18:56:58.241Z,85746.78
2022-11-28T18:59:25.907Z,85775.03
2022-11-28T19:01:52.983Z,85751.56
2022-11-28T19:04:20.100Z,85699.81
2022-11-28T19:06:48.821Z,85770.78
2022-11-28T19:09:17.217Z,85739.06
2022-11-28T19:11:45.030Z,85792.75
2022-11-28T19:14:17.804Z,85770.75
2022-11-28T19:16:45.879Z,85756.94
2022-11-28T19:19:21.208Z,85791.44
2022-11-28T19:21:49.049Z,85795.53
2022-11-28T19:24:16.167Z,85799.66
2022-11-28T19:26:43.235Z,85767.19
2022-11-28T19:29:10.278Z,85790.03
2022-11-28T19:31:39.703Z,85787.25
2022-11-28T19:34:10.625Z,85791.38
2022-11-28T19:36:41.172Z,85792.84
2022-11-28T19:39:13.313Z,85774.94
2022-11-28T19:41:40.364Z,85765.19
2022-11-28T19:44:07.281Z,85781.03
2022-11-28T19:46:35.987Z,85790.69
2022-11-28T19:49:08.654Z,85788.63
2022-11-28T19:51:35.690Z,85781.78
2022-11-28T19:54:03.943Z,85788.63
2022-11-28T19:56:33.105Z,85753.47
2022-11-28T19:59:00.499Z,85790.00
2022-11-28T20:01:28.583Z,85792.75
2022-11-28T20:03:55.739Z,85772.75
2022-11-28T20:06:29.143Z,85795.53
2022-11-28T20:09:01.087Z,85799.63
2022-11-28T20:11:34.554Z,85801.69
2022-11-28T20:14:07.401Z,85798.91
2022-11-28T20:16:35.794Z,85799.56
2022-11-28T20:19:05.176Z,85777.47
2022-11-28T20:21:34.442Z,85756.16
2022-11-28T20:24:05.172Z,85800.94
2022-11-28T20:26:37.248Z,85798.19
2022-11-28T20:29:05.200Z,85785.81
2022-11-28T20:31:36.709Z,85774.22
2022-11-28T20:34:04.893Z,85802.38
2022-11-28T20:36:33.226Z,85796.84
2022-11-28T20:39:01.247Z,85790.59
2022-11-28T20:41:29.310Z,85788.53
2022-11-28T20:43:58.742Z,85799.56
2022-11-28T20:46:30.817Z,85796.84
2022-11-28T20:49:00.039Z,85795.50
2022-11-28T20:51:29.389Z,85785.25
2022-11-28T20:53:58.320Z,85788.03
2022-11-28T20:56:29.907Z,85752.81
2022-11-28T20:59:01.735Z,85754.25
2022-11-28T21:01:35.881Z,85789.97
2022-11-28T21:04:05.109Z,85792.03
2022-11-28T21:06:33.043Z,85764.41
2022-11-28T21:09:00.155Z,85791.44
2022-11-28T21:14:15.623Z,85789.34
2022-11-28T21:16:43.847Z,85770.06
2022-11-28T21:19:11.598Z,85783.28
2022-11-28T21:21:40.606Z,85784.63
2022-11-28T21:24:11.550Z,85790.78
2022-11-28T21:26:43.181Z,85791.44
2022-11-28T21:29:13.052Z,85772.19
2022-11-28T21:31:43.544Z,85780.50
2022-11-28T21:34:16.938Z,85779.84
2022-11-28T21:36:44.763Z,85781.88
2022-11-28T21:39:20.213Z,85763.88
2022-11-28T21:41:47.964Z,85779.81
2022-11-28T21:44:15.032Z,85768.03
2022-11-28T21:46:42.723Z,85783.25
2022-11-28T21:49:09.848Z,85776.41
2022-11-28T21:51:39.542Z,85780.50
2022-11-28T21:54:06.707Z,85755.69
2022-11-28T21:56:34.095Z,85770.94
2022-11-28T21:59:01.118Z,85770.25
2022-11-28T22:01:29.170Z,85768.91
2022-11-28T22:04:02.168Z,85772.31
2022-11-28T22:06:34.049Z,85725.50
2022-11-28T22:09:08.612Z,85772.34
2022-11-28T22:11:36.070Z,85763.44
2022-11-28T22:14:03.720Z,85748.91
2022-11-28T22:16:31.215Z,85760.72
2022-11-28T22:19:00.203Z,85735.13
2022-11-28T22:21:51.410Z,85752.44
2022-11-28T22:24:15.345Z,85740.63
2022-11-28T22:26:43.871Z,85735.13
2022-11-28T22:29:11.803Z,85748.31
2022-11-28T22:31:38.911Z,85706.31
2022-11-28T22:34:06.021Z,85714.53
2022-11-28T22:36:34.470Z,85744.88
2022-11-28T22:39:03.901Z,85747.56
2022-11-28T22:41:31.305Z,85700.84
2022-11-28T22:44:01.114Z,85731.16
2022-11-28T22:46:30.530Z,85718.78
2022-11-28T22:49:02.689Z,85738.75
2022-11-28T22:51:31.086Z,85713.25
2022-11-28T22:54:00.556Z,85735.34
2022-11-28T22:56:30.829Z,85713.31
2022-11-28T22:58:59.582Z,85738.03
2022-11-28T23:01:30.413Z,85700.84
2022-11-28T23:03:57.953Z,85711.22
2022-11-28T23:06:33.606Z,85712.59
2022-11-28T23:09:04.258Z,85695.31
2022-11-28T23:11:33.548Z,85721.59
2022-11-28T23:14:01.896Z,85735.38
2022-11-28T23:16:34.815Z,85731.25
2022-11-28T23:19:08.145Z,85724.38
2022-11-28T23:21:37.909Z,85683.78
2022-11-28T23:24:06.948Z,85722.34
2022-11-28T23:26:35.129Z,85690.59
2022-11-28T23:29:04.839Z,85716.91
2022-11-28T23:31:36.991Z,85712.00
2022-11-28T23:34:05.603Z,85719.66
2022-11-28T23:36:41.862Z,85705.19
2022-11-28T23:39:16.776Z,85714.88
2022-11-28T23:41:44.156Z,85718.28
2022-11-28T23:44:12.842Z,85721.00
2022-11-28T23:46:40.041Z,85723.09
2022-11-28T23:49:07.782Z,85698.34
2022-11-28T23:51:34.842Z,85719.00
2022-11-28T23:54:01.954Z,85683.19
2022-11-28T23:56:31.567Z,85696.91
2022-11-28T23:59:02.371Z,85715.56
